createdAt,value
2018-12-20T00:00:44.965Z,23.57
2018-12-20T00:03:49.070Z,23.23
2018-12-20T00:06:53.581Z,24.07
2018-12-20T00:09:57.534Z,23.10
2018-12-20T00:13:02.799Z,23.80
2018-12-20T00:16:07.122Z,23.73
2018-12-20T00:19:11.355Z,25.70
2018-12-20T00:22:15.309Z,24.23
2018-12-20T00:25:19.355Z,24.63
2018-12-20T00:28:23.489Z,34.40
2018-12-20T00:31:27.607Z,25.83
2018-12-20T00:34:31.624Z,25.23
2018-12-20T00:37:35.626Z,23.87
2018-12-20T00:40:39.571Z,21.80
2018-12-20T00:43:43.551Z,23.60
2018-12-20T00:46:47.468Z,22.63
2018-12-20T00:49:51.308Z,25.57
2018-12-20T00:52:55.581Z,24.63
2018-12-20T00:55:59.711Z,21.87
2018-12-20T00:59:03.924Z,25.97
2018-12-20T01:02:08.427Z,24.17
2018-12-20T01:05:12.586Z,22.80
2018-12-20T01:08:16.698Z,24.73
2018-12-20T01:11:20.817Z,23.53
2018-12-20T01:14:24.822Z,23.70
2018-12-20T01:17:32.868Z,23.40
2018-12-20T01:20:36.934Z,24.93
2018-12-20T01:23:40.870Z,24.30
2018-12-20T01:26:44.972Z,28.50
2018-12-20T01:29:49.102Z,25.10
2018-12-20T01:32:52.996Z,24.10
2018-12-20T01:35:56.966Z,23.83
2018-12-20T01:39:00.857Z,23.37
2018-12-20T01:42:04.808Z,23.93
2018-12-20T01:45:08.819Z,23.00
2018-12-20T01:48:12.801Z,24.00
2018-12-20T01:51:17.086Z,23.80
2018-12-20T01:54:21.026Z,24.30
2018-12-20T01:57:24.880Z,25.67
2018-12-20T02:00:28.780Z,22.83
2018-12-20T02:03:32.778Z,24.93
2018-12-20T02:06:36.843Z,24.37
2018-12-20T02:09:40.759Z,23.63
2018-12-20T02:12:44.913Z,24.87
2018-12-20T02:15:49.690Z,23.53
2018-12-20T02:18:53.723Z,25.33
2018-12-20T02:21:57.627Z,23.37
2018-12-20T02:25:01.696Z,24.73
2018-12-20T02:28:06.108Z,24.70
2018-12-20T02:31:10.381Z,24.97
2018-12-20T02:34:14.818Z,23.13
2018-12-20T02:37:18.905Z,25.00
2018-12-20T02:40:23.079Z,23.73
2018-12-20T02:43:27.044Z,25.87
2018-12-20T02:46:31.236Z,26.37
2018-12-20T02:49:35.172Z,24.27
2018-12-20T02:52:39.056Z,25.70
2018-12-20T02:55:43.095Z,27.13
2018-12-20T02:58:47.076Z,25.80
2018-12-20T03:01:51.057Z,26.37
2018-12-20T03:04:54.913Z,25.43
2018-12-20T03:07:59.085Z,26.53
2018-12-20T03:11:03.160Z,28.47
2018-12-20T03:14:07.144Z,24.90
2018-12-20T03:17:11.062Z,25.20
2018-12-20T03:20:15.122Z,26.00
2018-12-20T03:23:19.196Z,26.83
2018-12-20T03:26:23.349Z,25.17
2018-12-20T03:29:27.342Z,26.77
2018-12-20T03:32:31.251Z,26.93
2018-12-20T03:35:35.369Z,26.87
2018-12-20T03:38:42.425Z,25.37
2018-12-20T03:41:46.450Z,25.47
2018-12-20T03:44:50.631Z,26.13
2018-12-20T03:47:54.842Z,26.43
2018-12-20T03:50:58.988Z,26.30
2018-12-20T03:54:03.147Z,26.60
2018-12-20T03:57:07.162Z,28.03
2018-12-20T04:00:11.141Z,29.30
2018-12-20T04:03:14.997Z,26.40
2018-12-20T04:06:18.873Z,26.60
2018-12-20T04:09:22.754Z,26.27
2018-12-20T04:12:27.177Z,25.03
2018-12-20T04:15:37.829Z,26.62
2018-12-20T04:18:37.345Z,24.90
2018-12-20T04:21:41.366Z,23.60
2018-12-20T04:24:45.344Z,27.87
2018-12-20T04:27:49.430Z,26.77
2018-12-20T04:30:53.696Z,26.53
2018-12-20T04:33:57.828Z,27.20
2018-12-20T04:37:01.843Z,28.73
2018-12-20T04:40:06.081Z,27.97
2018-12-20T04:43:10.091Z,27.03
2018-12-20T04:46:14.100Z,29.40
2018-12-20T04:49:18.405Z,26.90
2018-12-20T04:52:22.463Z,25.57
2018-12-20T04:55:26.426Z,29.23
2018-12-20T04:58:30.430Z,28.83
2018-12-20T05:01:34.776Z,27.50
2018-12-20T05:04:38.906Z,29.43
2018-12-20T05:07:42.900Z,26.13
2018-12-20T05:10:46.869Z,27.40
2018-12-20T05:13:50.781Z,27.57
2018-12-20T05:16:54.658Z,28.30
2018-12-20T05:19:58.561Z,28.07
2018-12-20T05:23:02.416Z,28.73
2018-12-20T05:26:06.707Z,29.23
2018-12-20T05:29:10.664Z,27.30
2018-12-20T05:32:14.681Z,27.30
2018-12-20T05:35:18.738Z,27.93
2018-12-20T05:38:22.760Z,27.20
2018-12-20T05:41:26.735Z,27.90
2018-12-20T05:44:30.762Z,28.50
2018-12-20T05:47:34.800Z,26.77
2018-12-20T05:50:38.711Z,27.50
2018-12-20T05:53:42.601Z,30.37
2018-12-20T05:56:46.626Z,28.37
2018-12-20T05:59:50.629Z,27.80
2018-12-20T06:02:54.627Z,30.67
2018-12-20T06:05:58.605Z,29.83
2018-12-20T06:09:02.813Z,29.00
2018-12-20T06:12:06.872Z,28.60
2018-12-20T06:15:11.164Z,30.10
2018-12-20T06:18:15.308Z,30.30
2018-12-20T06:21:19.370Z,28.97
2018-12-20T06:24:23.265Z,30.77
2018-12-20T06:27:27.212Z,30.40
2018-12-20T06:30:31.078Z,30.83
2018-12-20T06:33:35.161Z,29.50
2018-12-20T06:36:39.060Z,30.20
2018-12-20T06:39:42.969Z,29.30
2018-12-20T06:42:46.805Z,29.60
2018-12-20T06:45:50.691Z,30.67
2018-12-20T06:48:54.570Z,32.07
2018-12-20T06:51:58.605Z,31.10
2018-12-20T06:55:02.472Z,31.30
2018-12-20T06:58:06.592Z,28.87
2018-12-20T07:01:10.469Z,30.73
2018-12-20T07:04:14.419Z,31.17
2018-12-20T07:07:18.418Z,31.23
2018-12-20T07:10:22.323Z,30.10
2018-12-20T07:13:26.265Z,33.60
2018-12-20T07:16:30.145Z,30.10
2018-12-20T07:19:34.041Z,32.33
2018-12-20T07:22:38.052Z,39.20
2018-12-20T07:25:41.958Z,52.00
2018-12-20T07:28:45.881Z,41.67
2018-12-20T07:31:50.200Z,35.23
2018-12-20T07:34:54.127Z,35.37
2018-12-20T07:37:58.030Z,35.60
2018-12-20T07:41:01.921Z,38.90
2018-12-20T07:44:06.064Z,37.63
2018-12-20T07:47:10.146Z,34.80
2018-12-20T07:50:14.075Z,41.43
2018-12-20T07:53:17.953Z,34.23
2018-12-20T07:56:21.866Z,35.53
2018-12-20T07:59:25.757Z,34.13
2018-12-20T08:02:29.747Z,33.93
2018-12-20T08:05:34.375Z,33.80
2018-12-20T08:08:38.315Z,34.80
2018-12-20T08:11:42.256Z,35.43
2018-12-20T08:14:46.159Z,34.77
2018-12-20T08:17:50.137Z,36.30
2018-12-20T08:20:53.999Z,36.17
2018-12-20T08:23:57.911Z,35.17
2018-12-20T08:27:01.888Z,35.10
2018-12-20T08:30:06.515Z,34.07
2018-12-20T08:33:10.513Z,34.97
2018-12-20T08:36:14.535Z,34.73
2018-12-20T08:39:18.474Z,37.20
2018-12-20T08:42:22.385Z,37.33
2018-12-20T08:45:26.302Z,39.17
2018-12-20T08:48:30.189Z,35.63
2018-12-20T08:51:34.019Z,38.50
2018-12-20T08:54:37.974Z,36.00
2018-12-20T08:57:42.459Z,36.93
2018-12-20T09:00:46.644Z,37.60
2018-12-20T09:03:51.131Z,37.53
2018-12-20T09:06:55.651Z,38.90
2018-12-20T09:09:59.546Z,38.77
2018-12-20T09:13:09.467Z,37.70
2018-12-20T09:16:09.522Z,37.20
2018-12-20T09:19:13.474Z,36.63
2018-12-20T09:38:51.588Z,40.17
2018-12-20T09:41:55.679Z,38.07
2018-12-20T09:44:59.870Z,40.07
2018-12-20T09:48:05.905Z,37.93
2018-12-20T09:51:10.935Z,40.70
2018-12-20T09:54:14.836Z,37.77
2018-12-20T09:57:19.294Z,40.20
2018-12-20T10:00:23.499Z,38.37
2018-12-20T10:03:27.452Z,39.00
2018-12-20T10:06:32.500Z,45.08
2018-12-20T10:09:36.645Z,44.70
2018-12-20T10:12:40.538Z,43.17
2018-12-20T10:15:44.499Z,42.67
2018-12-20T10:18:48.482Z,43.47
2018-12-20T10:21:52.409Z,44.73
2018-12-20T10:24:56.370Z,43.53
2018-12-20T10:28:00.303Z,49.17
2018-12-20T10:31:04.342Z,42.30
2018-12-20T10:34:08.224Z,44.67
2018-12-20T10:37:12.096Z,45.27
2018-12-20T10:40:16.471Z,45.40
2018-12-20T10:43:20.417Z,41.77
2018-12-20T10:46:24.334Z,44.07
2018-12-20T10:49:28.461Z,41.73
2018-12-20T10:52:32.845Z,42.07
2018-12-20T10:55:37.156Z,42.70
2018-12-20T10:58:41.336Z,46.80
2018-12-20T11:01:49.237Z,45.40
2018-12-20T11:04:58.670Z,45.03
2018-12-20T11:08:08.111Z,45.43
2018-12-20T11:11:16.147Z,45.23
2018-12-20T11:14:20.037Z,42.43
2018-12-20T11:17:23.953Z,44.47
2018-12-20T11:20:28.335Z,43.40
2018-12-20T11:23:32.763Z,44.60
2018-12-20T11:26:36.762Z,45.07
2018-12-20T11:29:41.050Z,43.63
2018-12-20T11:32:45.358Z,42.30
2018-12-20T11:35:49.229Z,45.63
2018-12-20T11:38:53.147Z,44.37
2018-12-20T11:41:57.381Z,43.13
2018-12-20T11:45:01.299Z,42.70
2018-12-20T11:48:05.226Z,40.90
2018-12-20T11:51:09.138Z,44.30
2018-12-20T11:54:13.279Z,43.03
2018-12-20T11:57:17.625Z,40.53
2018-12-20T12:00:21.910Z,40.50
2018-12-20T12:03:26.576Z,40.10
2018-12-20T12:06:30.481Z,39.83
2018-12-20T12:09:35.632Z,40.50
2018-12-20T12:12:39.745Z,42.07
2018-12-20T12:15:43.997Z,40.33
2018-12-20T12:18:48.426Z,44.57
2018-12-20T12:21:52.551Z,39.60
2018-12-20T12:24:56.901Z,41.40
2018-12-20T12:28:01.142Z,44.53
2018-12-20T12:31:05.455Z,43.30
2018-12-20T12:34:09.880Z,42.60
2018-12-20T12:37:14.370Z,42.67
2018-12-20T12:40:18.800Z,43.07
2018-12-20T12:43:22.750Z,39.03
2018-12-20T12:46:26.782Z,47.33
2018-12-20T12:49:31.173Z,42.70
2018-12-20T12:52:35.519Z,40.53
2018-12-20T12:55:39.720Z,40.77
2018-12-20T12:58:44.015Z,45.30
2018-12-20T13:01:48.442Z,46.53
2018-12-20T13:04:52.810Z,49.97
2018-12-20T13:07:57.073Z,46.23
2018-12-20T13:11:01.331Z,45.47
2018-12-20T13:14:05.821Z,45.43
2018-12-20T13:17:10.160Z,46.63
2018-12-20T13:20:14.614Z,43.17
2018-12-20T13:23:18.915Z,45.10
2018-12-20T13:26:23.276Z,42.20
2018-12-20T13:29:27.551Z,42.20
2018-12-20T13:32:31.760Z,41.13
2018-12-20T13:35:35.992Z,43.77
2018-12-20T13:38:40.417Z,42.80
2018-12-20T13:41:44.877Z,43.40
2018-12-20T13:44:49.092Z,43.60
2018-12-20T13:47:53.510Z,44.50
2018-12-20T13:50:57.870Z,43.87
2018-12-20T13:54:02.237Z,44.20
2018-12-20T13:57:06.716Z,45.30
2018-12-20T14:00:15.314Z,46.53
2018-12-20T14:03:19.180Z,47.97
2018-12-20T14:06:23.533Z,46.63
2018-12-20T14:09:27.891Z,46.30
2018-12-20T14:12:32.185Z,45.20
2018-12-20T14:15:36.544Z,45.60
2018-12-20T14:18:40.456Z,45.97
2018-12-20T14:21:44.767Z,48.27
2018-12-20T14:24:49.059Z,48.37
2018-12-20T14:27:53.402Z,50.47
2018-12-20T14:30:57.499Z,46.70
2018-12-20T14:34:01.716Z,47.30
2018-12-20T14:37:06.002Z,50.57
2018-12-20T14:40:10.764Z,47.90
2018-12-20T14:43:15.156Z,46.87
2018-12-20T14:46:19.559Z,47.47
2018-12-20T14:49:23.872Z,47.17
2018-12-20T14:52:27.812Z,47.50
2018-12-20T14:55:31.955Z,47.67
2018-12-20T14:58:36.454Z,46.87
2018-12-20T15:01:40.788Z,49.50
2018-12-20T15:04:45.091Z,49.27
2018-12-20T15:07:49.248Z,49.50
2018-12-20T15:10:53.240Z,50.67
2018-12-20T15:13:57.131Z,48.97
2018-12-20T15:17:01.093Z,51.63
2018-12-20T15:20:06.132Z,48.23
2018-12-20T15:23:10.433Z,49.10
2018-12-20T15:26:14.697Z,48.37
2018-12-20T15:29:19.528Z,51.53
2018-12-20T15:32:23.955Z,48.67
2018-12-20T15:35:28.281Z,51.47
2018-12-20T15:38:33.208Z,50.57
2018-12-20T15:41:37.560Z,47.27
2018-12-20T15:44:41.846Z,54.50
2018-12-20T15:47:46.299Z,49.10
2018-12-20T15:50:50.663Z,48.83
2018-12-20T15:53:54.946Z,56.60
2018-12-20T15:56:58.806Z,54.87
2018-12-20T16:00:03.638Z,50.43
2018-12-20T16:03:07.884Z,49.53
2018-12-20T16:06:12.643Z,49.07
2018-12-20T16:09:17.054Z,50.40
2018-12-20T16:12:21.246Z,52.80
2018-12-20T16:15:25.108Z,53.47
2018-12-20T16:18:29.415Z,48.70
2018-12-20T16:21:33.634Z,49.63
2018-12-20T16:24:37.568Z,50.53
2018-12-20T16:27:41.901Z,49.80
2018-12-20T16:30:45.850Z,48.30
2018-12-20T16:33:49.774Z,52.40
2018-12-20T16:36:54.301Z,49.47
2018-12-20T16:39:58.736Z,50.63
2018-12-20T16:43:02.626Z,47.87
2018-12-20T16:46:06.569Z,49.37
2018-12-20T16:49:13.682Z,49.60
2018-12-20T16:52:16.857Z,53.07
2018-12-20T16:55:20.942Z,52.20
2018-12-20T16:58:25.737Z,49.40
2018-12-20T17:01:30.284Z,51.90
2018-12-20T17:04:35.243Z,51.33
2018-12-20T17:07:39.196Z,49.83
2018-12-20T17:10:43.566Z,53.07
2018-12-20T17:13:47.815Z,52.10
2018-12-20T17:16:51.752Z,51.50
2018-12-20T17:19:56.017Z,52.57
2018-12-20T17:23:00.312Z,53.90
2018-12-20T17:26:04.630Z,52.20
2018-12-20T17:29:09.263Z,54.20
2018-12-20T17:32:13.462Z,51.77
2018-12-20T17:35:18.788Z,54.20
2018-12-20T17:38:23.351Z,49.97
2018-12-20T17:41:27.644Z,48.63
2018-12-20T17:44:32.162Z,46.87
2018-12-20T17:47:36.483Z,50.30
2018-12-20T17:50:41.044Z,52.50
2018-12-20T17:53:44.987Z,50.20
2018-12-20T17:56:48.975Z,50.90
2018-12-20T17:59:52.839Z,47.43
2018-12-20T18:02:57.381Z,51.77
2018-12-20T18:06:01.593Z,50.80
2018-12-20T18:09:08.314Z,47.90
2018-12-20T18:12:12.343Z,47.80
2018-12-20T18:15:16.712Z,46.40
2018-12-20T18:18:21.296Z,52.80
2018-12-20T18:21:25.317Z,49.47
2018-12-20T18:24:29.633Z,49.77
2018-12-20T18:27:33.591Z,50.97
2018-12-20T18:30:37.836Z,51.53
2018-12-20T18:33:41.805Z,52.20
2018-12-20T18:36:45.897Z,52.00
2018-12-20T18:39:50.241Z,47.67
2018-12-20T18:42:54.187Z,54.43
2018-12-20T18:45:58.517Z,54.60
2018-12-20T18:49:02.736Z,57.80
2018-12-20T18:52:06.984Z,55.03
2018-12-20T18:55:11.364Z,53.00
2018-12-20T18:58:15.744Z,52.83
2018-12-20T19:01:20.108Z,55.30
2018-12-20T19:04:24.557Z,49.67
2018-12-20T19:07:28.826Z,54.03
2018-12-20T19:10:33.141Z,51.83
2018-12-20T19:13:37.127Z,52.30
2018-12-20T19:16:41.312Z,53.87
2018-12-20T19:19:56.005Z,54.77
2018-12-20T19:22:53.991Z,51.27
2018-12-20T19:25:58.263Z,56.07
2018-12-20T19:29:03.968Z,57.80
2018-12-20T19:32:21.519Z,54.90
2018-12-20T19:35:26.014Z,55.23
2018-12-20T19:38:30.283Z,57.60
2018-12-20T19:41:34.678Z,54.37
2018-12-20T19:44:39.039Z,55.83
2018-12-20T19:47:42.955Z,55.30
2018-12-20T19:50:47.068Z,54.73
2018-12-20T19:53:51.513Z,59.33
2018-12-20T19:56:57.679Z,54.50
2018-12-20T20:00:02.051Z,55.47
2018-12-20T20:03:06.016Z,54.37
2018-12-20T20:06:10.644Z,54.77
2018-12-20T20:09:15.019Z,55.80
2018-12-20T20:12:19.379Z,57.60
2018-12-20T20:15:23.894Z,56.33
2018-12-20T20:18:27.763Z,57.53
2018-12-20T20:21:31.610Z,55.93
2018-12-20T20:24:36.096Z,57.43
2018-12-20T20:27:40.415Z,57.77
2018-12-20T20:30:44.628Z,59.23
2018-12-20T20:33:50.336Z,58.80
2018-12-20T20:36:55.187Z,58.70
2018-12-20T20:40:05.351Z,58.07
2018-12-20T20:43:09.812Z,59.47
2018-12-20T20:46:13.776Z,55.60
2018-12-20T20:49:25.386Z,55.78
2018-12-20T20:52:30.221Z,59.67
2018-12-20T20:55:34.152Z,56.47
2018-12-20T20:58:38.383Z,58.97
2018-12-20T21:01:42.617Z,61.00
2018-12-20T21:04:47.127Z,56.33
2018-12-20T21:07:51.401Z,55.37
2018-12-20T21:10:55.656Z,59.70
2018-12-20T21:14:00.127Z,58.00
2018-12-20T21:17:04.342Z,62.07
2018-12-20T21:20:10.915Z,58.67
2018-12-20T21:23:14.933Z,56.33
2018-12-20T21:26:18.855Z,57.70
2018-12-20T21:29:23.333Z,61.33
2018-12-20T21:32:27.494Z,58.97
2018-12-20T21:35:31.443Z,60.27
2018-12-20T21:38:35.718Z,61.93
2018-12-20T21:41:40.051Z,59.10
2018-12-20T21:44:44.675Z,60.03
2018-12-20T21:47:49.179Z,58.50
2018-12-20T21:50:53.486Z,59.87
2018-12-20T21:53:57.762Z,58.70
2018-12-20T21:57:02.041Z,58.43
2018-12-20T22:00:09.207Z,55.73
2018-12-20T22:03:13.357Z,57.83
2018-12-20T22:06:17.257Z,58.87
2018-12-20T22:09:21.624Z,59.90
2018-12-20T22:12:25.911Z,58.27
2018-12-20T22:15:30.264Z,61.53
2018-12-20T22:18:34.666Z,61.40
2018-12-20T22:21:39.119Z,58.83
2018-12-20T22:24:43.311Z,61.07
2018-12-20T22:27:48.392Z,62.10
2018-12-20T22:30:52.283Z,61.90
2018-12-20T22:33:56.579Z,59.03
2018-12-20T22:37:00.948Z,62.10
2018-12-20T22:40:06.035Z,63.23
2018-12-20T22:43:10.255Z,58.90
2018-12-20T22:46:14.691Z,61.20
2018-12-20T22:49:19.083Z,59.73
2018-12-20T22:52:23.079Z,60.47
2018-12-20T22:55:27.058Z,61.10
2018-12-20T22:58:31.198Z,61.67
2018-12-20T23:01:35.344Z,64.33
2018-12-20T23:04:39.319Z,59.17
2018-12-20T23:07:43.769Z,60.73
2018-12-20T23:10:47.940Z,60.50
2018-12-20T23:13:52.157Z,59.83
2018-12-20T23:17:02.723Z,60.20
2018-12-20T23:20:07.830Z,61.77
2018-12-20T23:23:11.916Z,62.57
2018-12-20T23:26:16.218Z,62.73
2018-12-20T23:29:20.327Z,62.43
2018-12-20T23:32:24.532Z,61.30
2018-12-20T23:35:28.980Z,66.50
2018-12-20T23:38:33.299Z,63.13
2018-12-20T23:41:37.663Z,62.30
2018-12-20T23:44:41.998Z,59.53
2018-12-20T23:47:46.536Z,64.17
2018-12-20T23:50:50.468Z,58.37
2018-12-20T23:53:54.967Z,59.80
2018-12-20T23:56:58.882Z,60.53
